Kartal, Turkey
Current Conditions -  °F | °C
As of 9:20 PM on Thursday 23 Oct 2014 (Local Time) from LTFJ Reporting Station
Rain Showers Rain Showers  
Wind Chill: 70°   Ceiling: 3000
Heat Index: 70°   Visibility: 6mi
Dew Point: 55°   Wind: 7mph
Humidity: 60%   Direction: 240°WSW
Pressure: 29.71"   Gusts: NA
Location:  40.9°N, 29.19°E
Report Text: LTFJ 231820Z 24006KT 200V260 9999 -SHRA FEW020CB BKN030 21/13 Q1006 NOSIG
Loading
Personal Weather Stations






























Interactive Weather Map
Tropical Storm Tracking
New forecast layout! Learn more

10-Day Weather Forecast

Advertisements
Track Severe Weather on mobile